Time;durP1;ratioP1;P1;durP2;ratioP2;P2;SDS_P1;SDS_P2;PMS_P1;PMS_P2;Temp;Humidity;BMP_temperature;BMP_pressure;BME280_temperature;BME280_humidity;BME280_pressure;Samples;Min_cycle;Max_cycle;Signal;HPM_P1;HPM_P2
2023/10/11 00:00:38;;;;;;;11.43;4.95;;;18.80;69.00;;;;;;5039452;28;19908;-72
2023/10/11 00:03:14;;;;;;;10.40;5.00;;;18.70;68.90;;;;;;5041307;28;20370;-72
2023/10/11 00:05:40;;;;;;;9.23;4.68;;;18.70;68.80;;;;;;5036441;28;20025;-72
2023/10/11 00:08:16;;;;;;;11.32;4.68;;;18.70;68.90;;;;;;5042289;28;20021;-73
2023/10/11 00:10:59;;;;;;;10.85;5.38;;;18.70;68.90;;;;;;5041839;28;20033;-73
2023/10/11 00:13:33;;;;;;;9.50;4.38;;;18.70;68.90;;;;;;5036411;28;20025;-72
2023/10/11 00:16:07;;;;;;;10.40;5.13;;;18.70;69.00;;;;;;5036811;28;20021;-72
2023/10/11 00:18:34;;;;;;;9.32;4.53;;;18.70;69.10;;;;;;5048968;28;20021;-72
2023/10/11 00:21:09;;;;;;;11.43;4.90;;;18.60;69.10;;;;;;5034532;28;20048;-72
2023/10/11 00:23:36;;;;;;;11.43;5.05;;;18.70;69.10;;;;;;5040834;28;20021;-72
2023/10/11 00:26:02;;;;;;;9.02;5.18;;;18.70;69.20;;;;;;5019700;28;20036;-72
2023/10/11 00:28:31;;;;;;;9.32;5.10;;;18.60;69.10;;;;;;5042903;28;20036;-72
2023/10/11 00:31:02;;;;;;;13.55;5.45;;;18.60;69.10;;;;;;5046441;28;20545;-73
2023/10/11 00:33:29;;;;;;;9.93;5.70;;;18.60;69.10;;;;;;5040697;28;20355;-72
2023/10/11 00:35:55;;;;;;;11.57;5.05;;;18.60;69.20;;;;;;5037841;28;20492;-72
2023/10/11 00:38:27;;;;;;;11.02;5.10;;;18.60;69.20;;;;;;5069623;28;20025;-72
2023/10/11 00:43:39;;;;;;;9.48;4.93;;;18.60;69.20;;;;;;5043941;28;20025;-73
2023/10/11 00:46:09;;;;;;;10.70;4.63;;;18.60;69.20;;;;;;5027814;28;20038;-72
2023/10/11 00:48:51;;;;;;;9.68;5.10;;;18.60;69.20;;;;;;5040493;28;20120;-72
2023/10/11 00:51:19;;;;;;;10.75;5.35;;;18.50;69.10;;;;;;5043413;28;20033;-72
2023/10/11 00:53:46;;;;;;;9.75;4.88;;;18.50;69.10;;;;;;5042304;28;20032;-72
2023/10/11 00:56:14;;;;;;;11.55;5.32;;;18.50;69.00;;;;;;5032660;28;20393;-72
2023/10/11 00:58:41;;;;;;;11.02;5.10;;;18.50;69.00;;;;;;5050267;28;20025;-72
2023/10/11 01:01:08;;;;;;;11.52;4.95;;;18.50;68.90;;;;;;5048097;28;20033;-72
2023/10/11 01:03:35;;;;;;;9.02;4.75;;;18.50;69.00;;;;;;5038079;28;20036;-72
2023/10/11 01:06:03;;;;;;;9.25;4.70;;;18.50;69.60;;;;;;5041424;28;20041;-72
2023/10/11 01:08:38;;;;;;;10.65;5.85;;;18.50;69.00;;;;;;5052401;28;20037;-72
2023/10/11 01:11:11;;;;;;;12.75;5.15;;;18.50;69.00;;;;;;5043996;28;20472;-72
2023/10/11 01:13:42;;;;;;;9.43;4.97;;;18.50;69.00;;;;;;5038896;28;20041;-72
2023/10/11 01:16:11;;;;;;;9.45;5.15;;;18.50;69.00;;;;;;5051278;28;20430;-72
2023/10/11 01:18:39;;;;;;;11.20;5.03;;;18.50;69.00;;;;;;5054079;28;20120;-72
2023/10/11 01:21:05;;;;;;;9.85;5.15;;;18.50;69.00;;;;;;5025575;28;20021;-73
2023/10/11 01:23:34;;;;;;;9.30;4.70;;;18.40;69.00;;;;;;5043913;28;20450;-73
2023/10/11 01:26:09;;;;;;;12.45;5.22;;;18.40;69.00;;;;;;5050339;28;20033;-73
2023/10/11 01:28:46;;;;;;;13.77;5.70;;;18.40;69.10;;;;;;5052194;28;20036;-73
2023/10/11 01:31:16;;;;;;;11.13;5.63;;;18.40;69.20;;;;;;5032541;28;20051;-72
2023/10/11 01:33:45;;;;;;;9.93;4.93;;;18.50;69.20;;;;;;5050591;28;20040;-73
2023/10/11 01:36:14;;;;;;;9.68;4.90;;;18.40;69.20;;;;;;5046802;28;20041;-72
2023/10/11 01:38:47;;;;;;;9.27;4.93;;;18.40;69.10;;;;;;5040113;28;20045;-73
2023/10/11 01:41:28;;;;;;;10.00;4.97;;;18.40;69.10;;;;;;5051595;28;20025;-73
2023/10/11 01:43:55;;;;;;;9.20;5.13;;;18.40;69.00;;;;;;5036783;28;20025;-73
2023/10/11 01:46:35;;;;;;;9.63;5.68;;;18.40;69.10;;;;;;5036013;28;20328;-73
2023/10/11 01:49:03;;;;;;;10.15;4.90;;;18.40;69.10;;;;;;5035668;28;20052;-73
2023/10/11 01:51:29;;;;;;;8.73;4.40;;;18.40;69.20;;;;;;5032947;28;20029;-73
2023/10/11 01:54:06;;;;;;;11.48;5.18;;;18.40;69.10;;;;;;5042297;28;20359;-73
2023/10/11 01:56:32;;;;;;;11.20;4.80;;;18.40;69.10;;;;;;5036155;28;20021;-73
2023/10/11 01:59:00;;;;;;;9.18;4.80;;;18.40;69.10;;;;;;5035420;28;20033;-73
2023/10/11 02:01:30;;;;;;;10.75;5.22;;;18.40;69.10;;;;;;5049516;28;20358;-73
2023/10/11 02:03:58;;;;;;;11.85;5.07;;;18.30;69.00;;;;;;5050533;28;20059;-73
2023/10/11 02:06:25;;;;;;;11.82;5.20;;;18.30;69.00;;;;;;5035419;28;20068;-73
2023/10/11 02:08:52;;;;;;;10.07;5.20;;;18.30;69.00;;;;;;5036517;28;20075;-73
2023/10/11 02:11:25;;;;;;;9.77;5.00;;;18.30;69.00;;;;;;5035012;28;20025;-73
2023/10/11 02:13:51;;;;;;;12.23;5.50;;;18.30;68.90;;;;;;5042824;28;20025;-73
2023/10/11 02:16:17;;;;;;;11.20;5.60;;;18.30;69.00;;;;;;5034947;28;20075;-72
2023/10/11 02:18:43;;;;;;;9.95;4.88;;;18.30;69.10;;;;;;5035728;28;20109;-72
2023/10/11 02:21:09;;;;;;;9.65;5.25;;;18.30;69.20;;;;;;5024102;28;20044;-72
2023/10/11 02:23:37;;;;;;;12.15;5.45;;;18.20;69.30;;;;;;5035783;28;20449;-72
2023/10/11 02:26:04;;;;;;;11.57;5.72;;;18.30;69.30;;;;;;5036165;28;20104;-72
2023/10/11 02:28:30;;;;;;;12.15;5.60;;;18.30;69.30;;;;;;5037112;28;20038;-72
2023/10/11 02:30:56;;;;;;;10.43;5.38;;;18.20;69.30;;;;;;5035026;28;20045;-72
2023/10/11 02:33:22;;;;;;;8.80;5.10;;;18.20;69.40;;;;;;5035533;28;20037;-73
2023/10/11 02:36:34;;;;;;;13.07;5.82;;;18.20;69.50;;;;;;5035837;28;20082;-72
2023/10/11 02:38:50;;;;;;;12.15;5.63;;;18.20;69.50;;;;;;5054357;28;20103;-73
2023/10/11 02:41:24;;;;;;;11.77;5.32;;;18.20;69.40;;;;;;5021104;28;20352;-73
2023/10/11 02:43:49;;;;;;;12.13;5.95;;;18.20;69.50;;;;;;5035928;28;20071;-73
2023/10/11 02:46:23;;;;;;;13.48;6.15;;;18.20;69.50;;;;;;5050382;28;20057;-72
2023/10/11 02:49:18;;;;;;;11.40;6.05;;;18.20;69.50;;;;;;5045128;28;20064;-73
2023/10/11 02:51:51;;;;;;;10.10;5.35;;;18.20;69.60;;;;;;5032190;28;20033;-73
2023/10/11 02:54:17;;;;;;;10.75;5.35;;;18.10;69.60;;;;;;5049991;28;20124;-73
2023/10/11 02:56:46;;;;;;;9.77;5.05;;;18.10;69.70;;;;;;5034581;28;20056;-73
2023/10/11 02:59:20;;;;;;;12.70;5.65;;;18.10;69.70;;;;;;5039743;28;20044;-73
2023/10/11 03:01:59;;;;;;;10.13;5.22;;;18.10;69.70;;;;;;5014484;28;20621;-72
2023/10/11 03:04:38;;;;;;;10.73;5.30;;;18.10;69.80;;;;;;5019109;28;20030;-72
2023/10/11 03:07:05;;;;;;;10.98;5.68;;;18.10;69.90;;;;;;5022448;28;20458;-72
2023/10/11 03:09:33;;;;;;;12.52;6.00;;;18.10;70.00;;;;;;5051491;28;20033;-72
2023/10/11 03:14:54;;;;;;;11.75;5.55;;;18.00;70.00;;;;;;5033358;28;20037;-73
2023/10/11 03:17:20;;;;;;;10.40;5.38;;;18.00;70.10;;;;;;5028689;28;20029;-72
2023/10/11 03:19:49;;;;;;;10.85;6.03;;;18.00;70.10;;;;;;5029810;28;20108;-72
2023/10/11 03:22:19;;;;;;;10.93;5.68;;;17.90;70.00;;;;;;5046119;28;20035;-72
2023/10/11 03:24:53;;;;;;;13.27;6.30;;;17.90;70.10;;;;;;5041060;28;20036;-73
2023/10/11 03:27:27;;;;;;;13.73;6.18;;;17.90;70.10;;;;;;5039662;28;20044;-72
2023/10/11 03:29:53;;;;;;;11.05;6.00;;;17.90;70.10;;;;;;5033316;28;20029;-72
2023/10/11 03:32:20;;;;;;;11.73;6.05;;;17.90;70.10;;;;;;5047248;28;20045;-72
2023/10/11 03:34:46;;;;;;;10.38;5.97;;;17.90;70.20;;;;;;5036367;28;20179;-72
2023/10/11 03:37:18;;;;;;;10.27;5.93;;;17.90;70.30;;;;;;5048872;28;20372;-72
2023/10/11 03:39:44;;;;;;;9.80;5.60;;;17.80;70.30;;;;;;5040572;28;20021;-72
2023/10/11 03:44:40;;;;;;;11.65;6.15;;;17.80;70.50;;;;;;5034549;28;20030;-72
2023/10/11 03:47:09;;;;;;;10.55;5.90;;;17.70;70.50;;;;;;5033770;28;20025;-72
2023/10/11 03:52:30;;;;;;;10.43;5.60;;;17.70;70.70;;;;;;5075619;28;20049;-72
2023/10/11 03:57:35;;;;;;;11.68;6.25;;;17.70;70.80;;;;;;5060160;28;20025;-72
2023/10/11 04:00:09;;;;;;;13.35;6.25;;;17.70;70.80;;;;;;5072431;28;20039;-72
2023/10/11 04:02:37;;;;;;;12.00;6.15;;;17.60;70.80;;;;;;5061956;28;20120;-72
2023/10/11 04:05:03;;;;;;;13.10;6.43;;;17.70;70.90;;;;;;5080787;28;20449;-72
2023/10/11 04:07:31;;;;;;;11.05;5.68;;;17.60;71.00;;;;;;5055968;28;20025;-72
2023/10/11 04:10:04;;;;;;;11.52;6.13;;;17.60;71.10;;;;;;5040980;28;20108;-72
2023/10/11 04:12:30;;;;;;;11.85;6.00;;;17.50;71.10;;;;;;5056437;28;20113;-72
2023/10/11 04:14:58;;;;;;;12.30;6.20;;;17.60;71.30;;;;;;5083611;28;20052;-72
2023/10/11 04:19:50;;;;;;;10.85;6.43;;;17.50;71.40;;;;;;5063277;28;20360;-72
2023/10/11 04:22:18;;;;;;;10.65;5.57;;;17.60;71.50;;;;;;5074862;28;20334;-72
2023/10/11 04:24:45;;;;;;;10.55;6.28;;;17.50;71.50;;;;;;5080533;28;20032;-72
2023/10/11 04:29:47;;;;;;;11.40;6.15;;;17.50;71.60;;;;;;5063776;28;20039;-72
2023/10/11 04:32:14;;;;;;;11.13;5.95;;;17.50;71.70;;;;;;5074368;28;20021;-72
2023/10/11 04:34:55;;;;;;;11.77;6.13;;;17.40;71.60;;;;;;5065294;28;20039;-72
2023/10/11 04:37:43;;;;;;;14.38;6.85;;;17.50;71.70;;;;;;5071274;28;20158;-72
2023/10/11 04:41:14;;;;;;;11.25;6.18;;;17.40;71.70;;;;;;5082439;28;20362;-71
2023/10/11 04:43:08;;;;;;;10.27;6.72;;;17.50;71.90;;;;;;5064424;28;20051;-70
2023/10/11 04:45:44;;;;;;;9.63;5.80;;;17.40;71.90;;;;;;5065837;28;20033;-70
2023/10/11 04:48:15;;;;;;;12.23;6.38;;;17.40;71.90;;;;;;5062374;28;20073;-70
2023/10/11 04:50:48;;;;;;;12.57;6.00;;;17.40;72.00;;;;;;5096699;28;20441;-70
2023/10/11 04:53:18;;;;;;;14.02;6.90;;;17.40;72.10;;;;;;5076436;28;20028;-70
2023/10/11 04:55:59;;;;;;;9.93;5.63;;;17.30;72.10;;;;;;5086988;28;20059;-70
2023/10/11 05:01:08;;;;;;;14.43;7.20;;;17.40;72.40;;;;;;5073142;28;20120;-72
2023/10/11 05:03:37;;;;;;;12.63;6.10;;;17.30;72.40;;;;;;5044563;28;20044;-72
2023/10/11 05:06:13;;;;;;;15.32;6.55;;;17.30;72.40;;;;;;5067505;28;20066;-71
2023/10/11 05:08:52;;;;;;;12.10;5.90;;;17.30;72.40;;;;;;5076302;28;20115;-72
2023/10/11 05:11:39;;;;;;;12.93;6.70;;;17.30;72.40;;;;;;5066471;28;20429;-70
2023/10/11 05:16:49;;;;;;;12.70;6.88;;;17.30;72.40;;;;;;5072547;28;20036;-71
2023/10/11 05:19:20;;;;;;;12.65;6.10;;;17.30;72.40;;;;;;5042834;28;20024;-71
2023/10/11 05:21:52;;;;;;;10.95;6.15;;;17.30;72.70;;;;;;5059639;28;20047;-71
2023/10/11 05:27:11;;;;;;;12.20;6.53;;;17.30;72.40;;;;;;5075994;28;20036;-71
2023/10/11 05:30:05;;;;;;;12.65;7.30;;;17.30;72.40;;;;;;5042730;28;20043;-71
2023/10/11 05:32:27;;;;;;;13.68;6.75;;;17.30;72.50;;;;;;5076694;28;20115;-71
2023/10/11 05:51:26;;;;;;;15.23;6.70;;;17.30;72.70;;;;;;5044088;28;20473;-71
2023/10/11 05:53:59;;;;;;;13.07;6.85;;;17.30;72.60;;;;;;5057565;28;21181;-72
2023/10/11 05:56:25;;;;;;;11.45;6.75;;;17.40;72.60;;;;;;5047757;28;20020;-71
2023/10/11 05:58:53;;;;;;;12.45;6.65;;;17.40;72.60;;;;;;5051117;28;20350;-71
2023/10/11 06:01:21;;;;;;;12.27;6.75;;;17.40;72.60;;;;;;5054209;28;20365;-71
2023/10/11 06:03:51;;;;;;;11.35;6.20;;;17.40;72.60;;;;;;5053191;28;20394;-70
2023/10/11 06:06:38;;;;;;;13.35;6.60;;;17.40;72.60;;;;;;5043956;28;20041;-71
2023/10/11 06:09:05;;;;;;;10.32;6.65;;;17.40;72.60;;;;;;5049981;28;20545;-70
2023/10/11 06:11:38;;;;;;;11.63;6.25;;;17.50;72.60;;;;;;5060702;28;20063;-69
2023/10/11 06:14:06;;;;;;;13.00;6.75;;;17.50;72.60;;;;;;5054540;28;20111;-70
2023/10/11 06:16:39;;;;;;;14.95;7.43;;;17.50;72.60;;;;;;5033828;28;20108;-70
2023/10/11 06:19:17;;;;;;;12.13;6.85;;;17.50;72.60;;;;;;5045082;28;20040;-70
2023/10/11 06:24:34;;;;;;;12.32;7.35;;;17.60;72.60;;;;;;5057860;28;20044;-70
2023/10/11 06:29:37;;;;;;;12.40;7.45;;;17.60;72.50;;;;;;5073211;28;20410;-70
2023/10/11 06:32:11;;;;;;;12.85;7.05;;;17.60;72.50;;;;;;5057948;28;20020;-69
2023/10/11 06:34:37;;;;;;;11.90;7.28;;;17.60;72.50;;;;;;5075137;28;20051;-70
2023/10/11 06:37:06;;;;;;;12.13;7.22;;;17.70;72.60;;;;;;5056809;28;20027;-70
2023/10/11 06:42:25;;;;;;;12.55;6.93;;;17.70;72.60;;;;;;5025993;28;20170;-70
2023/10/11 06:44:51;;;;;;;12.50;7.30;;;17.70;72.60;;;;;;5057579;28;20111;-70
2023/10/11 06:47:22;;;;;;;14.35;7.32;;;17.70;72.70;;;;;;5063633;28;20036;-70
2023/10/11 06:49:55;;;;;;;11.68;7.88;;;17.70;72.70;;;;;;5059399;28;20407;-71
2023/10/11 06:52:30;;;;;;;13.18;7.53;;;17.80;72.80;;;;;;5048387;28;20106;-71
2023/10/11 06:57:56;;;;;;;12.35;7.53;;;17.90;72.80;;;;;;5034127;28;20028;-70
2023/10/11 07:00:24;;;;;;;13.57;7.10;;;17.90;72.70;;;;;;5061203;28;20163;-70
2023/10/11 07:03:07;;;;;;;13.18;7.35;;;17.90;72.70;;;;;;5036788;28;20028;-70
2023/10/11 07:05:46;;;;;;;12.23;7.60;;;18.00;72.70;;;;;;5046896;28;20548;-70
2023/10/11 07:08:20;;;;;;;12.98;7.30;;;18.00;72.70;;;;;;5037552;28;20419;-70
2023/10/11 07:11:40;;;;;;;13.43;7.10;;;18.00;72.70;;;;;;5055725;28;20024;-70
2023/10/11 07:14:00;;;;;;;12.55;7.85;;;18.10;72.70;;;;;;5039168;28;20374;-71
2023/10/11 07:16:27;;;;;;;13.23;7.70;;;18.10;72.70;;;;;;5061276;28;20102;-71
2023/10/11 07:18:56;;;;;;;14.45;7.78;;;18.10;72.70;;;;;;5057081;28;20044;-71
2023/10/11 07:21:26;;;;;;;11.93;6.93;;;18.10;72.80;;;;;;5046037;28;20036;-71
2023/10/11 07:29:05;;;;;;;12.65;7.60;;;18.10;73.00;;;;;;5039226;28;20043;-71
2023/10/11 07:31:32;;;;;;;14.52;7.80;;;18.10;73.00;;;;;;5037297;28;20397;-71
2023/10/11 07:34:09;;;;;;;13.80;8.15;;;18.10;73.00;;;;;;5046351;28;20449;-71
2023/10/11 07:36:39;;;;;;;12.30;7.18;;;18.20;73.80;;;;;;5062178;28;20037;-71
2023/10/11 07:39:19;;;;;;;12.65;7.72;;;18.20;73.10;;;;;;5059496;28;20032;-71
2023/10/11 07:41:49;;;;;;;13.15;8.38;;;18.20;73.10;;;;;;5059299;28;20047;-71
2023/10/11 07:44:18;;;;;;;14.25;7.95;;;18.20;73.20;;;;;;5046097;28;20449;-71
2023/10/11 07:46:48;;;;;;;17.27;7.88;;;18.20;73.20;;;;;;5036713;28;20040;-71
2023/10/11 07:49:23;;;;;;;12.60;8.20;;;18.20;73.20;;;;;;5050926;28;20052;-72
2023/10/11 07:51:58;;;;;;;15.65;8.85;;;18.20;73.20;;;;;;5074473;28;20062;-71
2023/10/11 07:54:26;;;;;;;13.65;7.75;;;18.20;73.40;;;;;;5074740;28;20033;-71
2023/10/11 07:56:57;;;;;;;15.60;8.77;;;18.20;73.60;;;;;;5073703;28;20102;-71
2023/10/11 07:59:26;;;;;;;14.13;8.23;;;18.30;73.80;;;;;;5071536;28;20037;-71
2023/10/11 08:02:41;;;;;;;14.88;8.13;;;18.30;73.90;;;;;;5074437;28;20386;-70
2023/10/11 08:04:48;;;;;;;14.77;8.10;;;18.30;73.80;;;;;;5063424;28;20589;-70
2023/10/11 08:07:17;;;;;;;15.27;9.13;;;18.30;73.80;;;;;;5072164;28;20051;-71
2023/10/11 08:09:45;;;;;;;18.25;9.50;;;18.40;73.90;;;;;;5052169;28;20032;-71
2023/10/11 08:12:16;;;;;;;16.70;8.80;;;18.40;73.80;;;;;;5056648;28;20016;-70
2023/10/11 08:14:46;;;;;;;13.75;8.30;;;18.40;73.70;;;;;;5068334;28;20450;-70
2023/10/11 08:17:16;;;;;;;16.83;9.45;;;18.50;73.80;;;;;;5062021;28;20028;-70
2023/10/11 08:19:46;;;;;;;19.30;8.85;;;18.50;73.80;;;;;;5031746;28;20039;-71
2023/10/11 08:22:16;;;;;;;14.93;7.90;;;18.60;73.70;;;;;;5059406;28;20032;-71
2023/10/11 08:24:49;;;;;;;16.27;8.27;;;18.60;73.60;;;;;;5059167;28;20035;-71
2023/10/11 08:30:09;;;;;;;14.00;8.57;;;18.80;73.50;;;;;;5065172;28;20063;-71
2023/10/11 08:32:43;;;;;;;16.20;8.82;;;18.90;73.30;;;;;;5049715;28;20103;-70
2023/10/11 08:35:31;;;;;;;16.27;8.52;;;19.00;73.10;;;;;;5034956;28;20323;-70
2023/10/11 08:38:03;;;;;;;15.35;9.35;;;19.10;73.10;;;;;;5047488;28;20039;-70
2023/10/11 08:40:36;;;;;;;14.43;9.32;;;19.10;73.10;;;;;;5044797;28;20033;-70
2023/10/11 08:43:03;;;;;;;15.43;9.80;;;19.10;73.20;;;;;;5054576;28;20037;-70
2023/10/11 08:45:33;;;;;;;15.98;9.95;;;19.00;73.40;;;;;;5043608;28;20079;-70
2023/10/11 08:48:00;;;;;;;17.05;10.32;;;19.00;73.60;;;;;;5053470;28;20072;-71
2023/10/11 08:50:34;;;;;;;14.45;9.70;;;19.00;73.80;;;;;;5045573;28;20112;-69
2023/10/11 08:53:07;;;;;;;15.88;9.70;;;18.90;74.00;;;;;;5044092;28;20036;-70
2023/10/11 08:55:35;;;;;;;16.15;10.27;;;18.90;74.20;;;;;;5051486;28;20056;-69
2023/10/11 08:58:14;;;;;;;19.25;11.32;;;18.90;74.40;;;;;;5050459;28;20179;-70
2023/10/11 09:00:47;;;;;;;18.35;11.35;;;18.90;74.60;;;;;;5075467;28;20059;-70
2023/10/11 09:03:57;;;;;;;18.20;11.73;;;18.80;74.70;;;;;;5049067;28;20449;-70
2023/10/11 09:06:22;;;;;;;18.38;10.15;;;18.80;74.90;;;;;;5063240;28;20052;-70
2023/10/11 09:08:49;;;;;;;19.35;12.27;;;18.80;75.10;;;;;;5063350;28;20068;-70
2023/10/11 09:11:33;;;;;;;22.45;12.15;;;18.80;75.30;;;;;;5063747;28;20035;-70
2023/10/11 09:14:10;;;;;;;19.13;10.93;;;18.70;75.40;;;;;;5065095;28;20020;-70
2023/10/11 09:16:36;;;;;;;18.10;11.68;;;18.70;75.60;;;;;;5056098;28;20032;-70
2023/10/11 09:19:06;;;;;;;19.13;11.65;;;18.70;75.80;;;;;;5049001;28;20037;-70
2023/10/11 09:21:35;;;;;;;19.25;11.25;;;18.70;75.90;;;;;;5073394;28;20029;-70
2023/10/11 09:24:23;;;;;;;19.35;11.98;;;18.80;76.10;;;;;;5031992;28;20024;-70
2023/10/11 09:29:42;;;;;;;;;;;18.80;76.30;;;;;;5060979;28;20439;-71
2023/10/11 09:32:09;;;;;;;17.23;11.05;;;18.80;76.00;;;;;;5052391;28;19909;-70
2023/10/11 09:34:41;;;;;;;16.65;11.15;;;18.80;76.10;;;;;;5061213;28;20025;-70
2023/10/11 09:37:13;;;;;;;19.00;13.27;;;18.80;76.30;;;;;;5040992;28;20442;-70
2023/10/11 09:39:42;;;;;;;19.67;12.68;;;18.80;76.60;;;;;;5049094;28;20121;-71
2023/10/11 09:42:11;;;;;;;22.73;13.35;;;18.80;76.70;;;;;;5046779;28;20024;-70
2023/10/11 09:44:39;;;;;;;18.90;12.23;;;18.80;76.90;;;;;;5037668;28;20077;-70
2023/10/11 09:47:07;;;;;;;19.33;12.80;;;18.80;77.00;;;;;;5046798;28;20108;-71
2023/10/11 09:49:41;;;;;;;17.80;13.00;;;18.80;77.20;;;;;;5047501;28;20182;-70
2023/10/11 09:52:11;;;;;;;22.95;14.68;;;18.80;77.30;;;;;;5062102;28;20469;-71
2023/10/11 09:54:39;;;;;;;20.95;13.43;;;18.80;77.40;;;;;;5068821;28;20032;-69
2023/10/11 09:57:22;;;;;;;23.02;13.80;;;18.80;77.50;;;;;;5045602;28;20024;-70
2023/10/11 10:00:14;;;;;;;23.00;13.90;;;18.80;77.70;;;;;;5049824;28;20028;-70
2023/10/11 10:02:46;;;;;;;18.10;12.85;;;18.80;77.70;;;;;;5053835;28;20047;-70
2023/10/11 10:05:13;;;;;;;21.55;13.52;;;18.80;77.70;;;;;;5036730;28;20052;-70
2023/10/11 10:10:07;;;;;;;27.65;15.45;;;18.80;78.00;;;;;;5046841;28;20033;-70
2023/10/11 10:12:55;;;;;;;22.05;14.10;;;18.80;78.10;;;;;;5049742;28;20115;-70
2023/10/11 10:15:28;;;;;;;21.77;14.27;;;18.80;78.20;;;;;;5049152;28;20024;-70
2023/10/11 10:17:57;;;;;;;23.27;15.50;;;18.80;78.30;;;;;;5059649;28;20111;-70
2023/10/11 10:20:34;;;;;;;25.05;15.20;;;18.80;78.50;;;;;;5059602;28;20029;-70
2023/10/11 10:23:15;;;;;;;22.67;14.88;;;18.80;78.70;;;;;;5057064;28;20020;-70
2023/10/11 10:25:47;;;;;;;25.38;14.57;;;18.80;78.70;;;;;;5023501;28;20032;-70
2023/10/11 10:28:39;;;;;;;23.45;14.80;;;18.80;78.80;;;;;;5032100;28;20064;-70
2023/10/11 10:31:16;;;;;;;22.55;14.57;;;18.80;79.10;;;;;;5031268;28;20028;-70
2023/10/11 10:33:50;;;;;;;23.02;14.43;;;18.80;79.00;;;;;;5038553;28;20334;-70
2023/10/11 10:36:21;;;;;;;21.30;14.88;;;18.80;79.10;;;;;;5034868;28;20069;-68
2023/10/11 10:39:28;;;;;;;25.88;14.73;;;18.80;79.20;;;;;;5060555;28;20022;-68
2023/10/11 10:42:12;;;;;;;22.88;14.65;;;18.80;79.30;;;;;;5061580;28;20043;-68
2023/10/11 10:45:07;;;;;;;21.63;14.38;;;18.90;79.30;;;;;;5042542;28;20029;-68
2023/10/11 10:47:33;;;;;;;19.83;13.35;;;18.90;79.40;;;;;;5029410;28;20040;-71
2023/10/11 10:50:07;;;;;;;19.90;14.63;;;18.90;79.30;;;;;;5044820;28;20032;-71
2023/10/11 10:52:34;;;;;;;25.27;15.18;;;18.90;79.30;;;;;;5045972;28;20029;-70
2023/10/11 10:55:05;;;;;;;24.55;15.20;;;18.90;79.40;;;;;;5059833;28;20090;-70
2023/10/11 10:57:32;;;;;;;26.13;15.45;;;18.90;79.50;;;;;;5050260;28;20409;-68
2023/10/11 11:00:07;;;;;;;27.92;15.35;;;19.00;79.60;;;;;;5058044;28;20017;-68
2023/10/11 11:02:37;;;;;;;20.73;14.10;;;19.00;79.80;;;;;;5042140;28;21482;-68
2023/10/11 11:05:13;;;;;;;22.45;14.15;;;19.00;79.80;;;;;;5055031;28;20025;-69
2023/10/11 11:07:40;;;;;;;20.33;14.50;;;19.00;79.90;;;;;;5035489;28;20028;-68
2023/10/11 11:10:07;;;;;;;20.73;14.15;;;19.00;79.80;;;;;;5054386;28;20017;-68
2023/10/11 11:12:33;;;;;;;21.63;14.35;;;19.00;79.80;;;;;;5055119;28;20430;-68
2023/10/11 11:14:59;;;;;;;21.70;15.05;;;19.00;79.90;;;;;;5054614;28;20029;-68
2023/10/11 11:17:46;;;;;;;21.42;15.00;;;19.00;80.00;;;;;;5037121;28;20025;-69
2023/10/11 11:20:13;;;;;;;23.98;14.77;;;19.00;80.00;;;;;;5036285;28;20021;-69
2023/10/11 11:22:40;;;;;;;23.80;15.57;;;19.00;80.00;;;;;;5054876;28;20060;-68
2023/10/11 11:25:26;;;;;;;23.20;13.90;;;19.10;80.10;;;;;;5054191;28;20387;-68
2023/10/11 11:28:16;;;;;;;20.98;13.05;;;19.10;80.20;;;;;;5037135;28;20369;-68
2023/10/11 11:30:44;;;;;;;25.95;14.32;;;19.20;80.10;;;;;;5036532;28;20022;-69
2023/10/11 11:33:35;;;;;;;20.55;13.48;;;19.20;80.00;;;;;;5036907;28;20032;-68
2023/10/11 11:36:10;;;;;;;20.50;12.70;;;19.20;80.00;;;;;;5037255;28;20036;-69
2023/10/11 11:38:37;;;;;;;22.35;12.85;;;19.30;79.90;;;;;;5036522;28;20067;-69
2023/10/11 11:41:15;;;;;;;22.38;13.00;;;19.30;79.70;;;;;;5055100;28;20028;-68
2023/10/11 11:43:41;;;;;;;19.30;12.27;;;19.40;79.70;;;;;;5037204;28;20353;-69
2023/10/11 11:46:06;;;;;;;19.10;12.32;;;19.40;79.60;;;;;;5023233;28;20108;-69
2023/10/11 11:48:41;;;;;;;17.98;11.65;;;19.40;79.60;;;;;;5036191;28;20077;-68
2023/10/11 11:51:16;;;;;;;18.65;11.57;;;19.40;79.70;;;;;;5037064;28;20086;-68
2023/10/11 11:53:45;;;;;;;19.67;10.93;;;19.40;79.70;;;;;;5054709;28;20053;-69
2023/10/11 11:56:12;;;;;;;15.95;10.77;;;19.50;79.70;;;;;;5037163;28;20065;-69
2023/10/11 11:58:46;;;;;;;18.63;11.88;;;19.50;79.70;;;;;;5036393;28;20491;-69
2023/10/11 12:01:17;;;;;;;17.98;10.50;;;19.50;79.60;;;;;;5020177;28;20043;-69
2023/10/11 12:03:52;;;;;;;21.48;10.85;;;19.60;79.50;;;;;;5036464;28;20175;-70
2023/10/11 12:06:24;;;;;;;17.80;10.07;;;19.70;79.50;;;;;;5054346;28;20029;-69
2023/10/11 12:09:00;;;;;;;15.13;9.18;;;19.70;79.30;;;;;;5053243;28;20165;-69
2023/10/11 12:11:31;;;;;;;16.38;9.18;;;19.70;79.20;;;;;;5056395;28;20021;-68
2023/10/11 12:13:58;;;;;;;22.35;9.90;;;19.70;79.20;;;;;;5040640;28;20040;-68
2023/10/11 12:16:28;;;;;;;14.85;9.40;;;19.80;79.20;;;;;;5058442;28;20446;-68
2023/10/11 12:18:58;;;;;;;16.58;9.57;;;19.80;79.20;;;;;;5056932;28;20120;-68
2023/10/11 12:21:25;;;;;;;13.45;8.95;;;19.80;79.10;;;;;;5057474;28;20032;-69
2023/10/11 12:23:51;;;;;;;16.88;8.40;;;19.80;79.10;;;;;;5040476;28;20033;-68
2023/10/11 12:26:17;;;;;;;16.52;9.57;;;19.80;79.20;;;;;;5040676;28;20112;-68
2023/10/11 12:28:44;;;;;;;16.63;8.93;;;19.80;79.30;;;;;;5057974;28;20450;-69
2023/10/11 12:31:10;;;;;;;15.48;8.80;;;19.80;79.30;;;;;;5039638;28;20021;-68
2023/10/11 12:33:36;;;;;;;15.45;8.82;;;19.80;79.20;;;;;;5040080;28;20029;-68
2023/10/11 12:36:05;;;;;;;16.17;8.65;;;19.80;79.20;;;;;;5023726;28;20043;-68
2023/10/11 12:38:39;;;;;;;16.70;8.70;;;19.80;79.30;;;;;;5057020;28;20469;-68
2023/10/11 12:41:06;;;;;;;14.63;8.77;;;19.80;79.30;;;;;;5057610;28;20025;-68
2023/10/11 12:43:35;;;;;;;15.82;8.52;;;19.80;79.30;;;;;;5058113;28;20364;-68
2023/10/11 12:46:00;;;;;;;16.83;8.73;;;19.80;79.20;;;;;;5056770;28;20047;-69
2023/10/11 12:48:27;;;;;;;13.45;8.10;;;19.80;79.30;;;;;;5023432;28;20124;-69
2023/10/11 12:50:52;;;;;;;13.38;8.52;;;19.80;79.30;;;;;;5039751;28;20056;-69
2023/10/11 12:53:18;;;;;;;15.07;8.50;;;19.80;79.40;;;;;;5057654;28;20056;-68
2023/10/11 12:55:49;;;;;;;13.65;8.05;;;19.80;79.50;;;;;;5039194;28;20036;-68
2023/10/11 12:58:16;;;;;;;15.90;8.88;;;19.70;79.50;;;;;;5040155;28;20033;-68
2023/10/11 13:00:51;;;;;;;15.20;8.98;;;19.70;79.60;;;;;;5057289;28;20036;-68
2023/10/11 13:03:18;;;;;;;14.88;9.02;;;19.70;79.70;;;;;;5039642;28;20498;-68
2023/10/11 13:05:48;;;;;;;17.52;10.25;;;19.70;79.70;;;;;;5039148;28;20037;-69
2023/10/11 13:08:15;;;;;;;16.40;10.20;;;19.70;79.80;;;;;;5039791;28;20036;-68
2023/10/11 13:10:45;;;;;;;18.85;10.10;;;19.70;79.80;;;;;;5023097;28;20021;-69
2023/10/11 13:13:14;;;;;;;20.40;10.80;;;19.70;79.80;;;;;;5057378;28;20021;-68
2023/10/11 13:15:41;;;;;;;19.52;10.70;;;19.70;79.90;;;;;;5038837;28;20033;-69
2023/10/11 13:18:10;;;;;;;18.45;11.18;;;19.60;79.90;;;;;;5056891;28;20036;-68
2023/10/11 13:20:38;;;;;;;16.05;10.48;;;19.60;80.00;;;;;;5039138;28;20028;-68
2023/10/11 13:23:07;;;;;;;18.27;11.60;;;19.60;80.00;;;;;;5057082;28;20036;-68
2023/10/11 13:25:33;;;;;;;20.77;11.57;;;19.60;80.00;;;;;;5054885;28;20028;-68
2023/10/11 13:28:02;;;;;;;18.45;11.52;;;19.60;80.10;;;;;;5056329;28;20108;-68
2023/10/11 13:30:29;;;;;;;20.50;12.90;;;19.60;80.10;;;;;;5056938;28;20450;-68
2023/10/11 13:32:57;;;;;;;17.80;12.45;;;19.60;80.20;;;;;;5057096;28;20021;-69
2023/10/11 13:35:23;;;;;;;21.17;13.55;;;19.60;80.20;;;;;;5055742;28;20033;-68
2023/10/11 13:37:50;;;;;;;19.70;13.68;;;19.60;80.20;;;;;;5056713;28;20112;-69
2023/10/11 13:40:17;;;;;;;23.60;14.32;;;19.60;80.30;;;;;;5056834;28;20021;-68
2023/10/11 13:42:43;;;;;;;22.55;14.77;;;19.60;80.20;;;;;;5039223;28;20477;-69
2023/10/11 13:45:16;;;;;;;22.58;16.60;;;19.60;80.20;;;;;;5037933;28;20020;-68
2023/10/11 13:47:50;;;;;;;23.42;14.75;;;19.60;80.30;;;;;;5038453;28;20033;-69
2023/10/11 13:50:22;;;;;;;19.30;14.52;;;19.60;80.30;;;;;;5056070;28;20342;-69
2023/10/11 13:52:51;;;;;;;21.95;14.40;;;19.60;80.30;;;;;;5038985;28;20033;-68
2023/10/11 13:55:19;;;;;;;20.77;14.32;;;19.60;80.30;;;;;;5038986;28;20033;-69
2023/10/11 13:57:52;;;;;;;21.33;14.55;;;19.60;80.30;;;;;;5039134;28;20104;-69
2023/10/11 14:05:44;;;;;;;24.77;15.73;;;19.60;80.20;;;;;;5056470;28;20048;-69
2023/10/11 14:08:27;;;;;;;19.73;15.20;;;19.60;80.30;;;;;;5056176;28;20032;-69
2023/10/11 14:10:54;;;;;;;22.90;15.27;;;19.70;80.40;;;;;;5055499;28;20029;-69